Flight Track Log - Related Links

Times and Time Zones

All times are in EDT time to prevent confusion due to time zone crossing. See the DAL3759 flight status page for this flight to view local times or setup timezone preferences in your user account.

Time Position Orientation Groundspeed Altitude Reporting Facility
EDT Latitude Longitude Course Direction KTS MPH feet Rate Location/Type
Thu 06:45:57 PM 35.0167 -89.9667 180° South 90 104 1,000  Level KMEM
Thu 06:46:51 PM 34.9833 -89.9667 180° South 217 250 2,600 1,737 Climbing KMEM
Thu 06:47:51 PM 34.9333 -89.9167 141° Southeast 282 325 4,300 2,000 Climbing KMEM
Thu 06:48:51 PM 34.9500 -89.8333 76° East 291 335 6,600 2,238 Climbing KMEM
Thu 06:49:57 PM 34.9833 -89.7333 68° East 295 339 9,000 1,895 Climbing KMEM
Thu 06:51:04 PM 35.0364 -89.6267 59° Northeast 317 365 10,800 1,323 Climbing Memphis Center
Thu 06:52:04 PM 35.0775 -89.5247 64° Northeast 328 377 11,800 1,200 Climbing Memphis Center
Thu 06:53:04 PM 35.1267 -89.4125 62° Northeast 345 397 13,200 1,400 Climbing Memphis Center
Thu 06:54:04 PM 35.1678 -89.3106 64° Northeast 359 413 14,600 1,400 Climbing Memphis Center
Thu 06:55:04 PM 35.2125 -89.1956 65° Northeast 370 426 16,000 1,350 Climbing Memphis Center
Thu 06:56:04 PM 35.2447 -89.0731 72° East 370 426 17,300 1,050 Climbing Memphis Center
Thu 06:57:04 PM 35.2619 -88.9431 81° East 380 437 18,100 850 Climbing Memphis Center
Thu 06:58:04 PM 35.2792 -88.8081 81° East 390 449 19,000 950 Climbing Memphis Center
Thu 06:59:04 PM 35.2942 -88.6731 82° East 390 449 20,000 950 Climbing Memphis Center
Thu 07:00:04 PM 35.3150 -88.5250 80° East 396 456 20,900 750 Climbing Memphis Center
Thu 07:01:04 PM 35.3297 -88.4000 82° East 396 456 21,500 650 Climbing Memphis Center
Thu 07:02:04 PM 35.3483 -88.2619 81° East 402 463 22,200 750 Climbing Memphis Center
Thu 07:03:04 PM 35.3667 -88.1189 81° East 413 475 23,000 650 Climbing Memphis Center
Thu 07:04:04 PM 35.3850 -87.9783 81° East 413 475 23,500 500 Climbing Memphis Center
Thu 07:05:04 PM 35.4133 -87.8247 77° East 413 475 24,000 500 Climbing Memphis Center
Thu 07:06:04 PM 35.4500 -87.6886 72° East 418 481 24,500 500 Climbing Memphis Center
Thu 07:07:04 PM 35.4886 -87.5444 72° East 429 494 25,000 550 Climbing Memphis Center
Thu 07:08:04 PM 35.5269 -87.4056 71° East 430 495 25,600 550 Climbing Memphis Center
Thu 07:09:04 PM 35.5633 -87.2664 72° East 430 495 26,100 500 Climbing Memphis Center
Thu 07:10:04 PM 35.5992 -87.1247 73° East 425 489 26,600 500 Climbing Memphis Center
Thu 07:11:04 PM 35.6372 -86.9825 72° East 431 496 27,100 500 Climbing Memphis Center
Thu 07:12:04 PM 35.6731 -86.8431 72° East 426 490 27,600 500 Climbing Memphis Center
Thu 07:13:04 PM 35.7106 -86.7008 72° East 426 490 28,100 500 Climbing Memphis Center
Thu 07:14:04 PM 35.7458 -86.5586 73° East 426 490 28,600 450 Climbing Memphis Center
Thu 07:15:04 PM 35.7797 -86.4369 71° East 426 490 29,000 450 Climbing Memphis Center
Thu 07:16:04 PM 35.8147 -86.2944 73° East 426 490 29,500 500 Climbing Memphis Center
Thu 07:17:04 PM 35.8494 -86.1519 73° East 426 490 30,000 550 Climbing Memphis Center
Thu 07:18:04 PM 35.8864 -86.0142 72° East 426 490 30,600 373 Climbing Memphis Center
Thu 07:19:45 PM 35.9458 -85.7828 72° East 422 486 31,000 149 Climbing Atlanta Center
Thu 07:20:45 PM 35.9792 -85.6400 74° East 416 479 31,000  Level Atlanta Center
Thu 07:21:45 PM 36.0164 -85.4969 72° East 422 486 31,000  Level Atlanta Center
Thu 07:22:45 PM 36.0533 -85.3486 73° East 437 503 31,000  Level Atlanta Center
Thu 07:23:45 PM 36.0903 -85.2003 73° East 437 503 31,000  Level Atlanta Center
Thu 07:24:45 PM 36.1189 -85.0489 77° East 443 510 31,000  Level Atlanta Center
Thu 07:25:45 PM 36.1514 -84.8794 77° East 448 516 31,000  Level Atlanta Center
Thu 07:26:45 PM 36.1753 -84.7256 79° East 454 522 31,000  Level Atlanta Center
Thu 07:27:45 PM 36.2053 -84.5714 76° East 454 522 31,000  Level Atlanta Center
Thu 07:28:45 PM 36.2308 -84.4172 78° East 454 522 31,000  Level Atlanta Center
Thu 07:29:45 PM 36.2561 -84.2628 78° East 449 517 31,000  Level Atlanta Center
Thu 07:30:45 PM 36.2836 -84.1108 77° East 449 517 31,000  Level Atlanta Center
Thu 07:31:45 PM 36.3106 -83.9536 78° East 449 517 31,000  Level Atlanta Center
Thu 07:32:45 PM 36.3314 -83.8169 79° East 449 517 31,000  Level Atlanta Center
Thu 07:33:45 PM 36.3558 -83.6650 79° East 449 517 31,000  Level Atlanta Center
Thu 07:34:45 PM 36.3825 -83.5128 78° East 449 517 31,000  Level Atlanta Center
Thu 07:35:45 PM 36.4067 -83.3603 79° East 449 517 31,000  Level Atlanta Center
Thu 07:36:45 PM 36.4331 -83.2025 78° East 449 517 31,000  Level Atlanta Center
Thu 07:37:45 PM 36.4547 -83.0500 80° East 449 517 31,000  Level Atlanta Center
Thu 07:38:45 PM 36.4825 -82.8975 77° East 449 517 31,000  Level Atlanta Center
Thu 07:39:45 PM 36.5061 -82.7422 79° East 449 517 31,000  Level Atlanta Center
Thu 07:40:45 PM 36.5294 -82.5867 79° East 449 517 31,000  Level Atlanta Center
Thu 07:41:45 PM 36.5544 -82.4314 79° East 449 517 31,000 -500 Level Atlanta Center
Thu 07:42:45 PM 36.5814 -82.2703 78° East 455 524 30,000 -850 Descending Atlanta Center
Thu 07:43:45 PM 36.6100 -82.0914 79° East 476 548 29,300 -500 Descending Atlanta Center
Thu 07:44:45 PM 36.6328 -81.9433 79° East 481 554 29,000 -150 Descending Atlanta Center
Thu 07:45:45 PM 36.6611 -81.7822 78° East 481 554 29,000  Level Atlanta Center
Thu 07:46:45 PM 36.6978 -81.6258 74° East 471 542 29,000  Level Atlanta Center
Thu 07:47:45 PM 36.7381 -81.4561 73° East 471 542 29,000  Level Atlanta Center
Thu 07:49:39 PM 36.8069 -81.1592 74° East 496 571 29,000  Level Washington Center
Thu 07:50:40 PM 36.8411 -81.0006 75° East 480 552 29,000 -252 Level Washington Center
Thu 07:51:38 PM 36.8750 -80.8550 74° East 450 518 28,500 -1,169 Descending Washington Center
Thu 07:52:38 PM 36.9061 -80.7142 75° East 450 518 26,700 -1,686 Descending Washington Center
Thu 07:53:39 PM 36.9397 -80.5581 75° East 456 525 25,100 -843 Descending Washington Center
Thu 07:54:39 PM 36.9733 -80.3989 75° East 461 531 25,000 -248 Descending Washington Center
Thu 07:55:40 PM 37.0067 -80.2450 75° East 466 536 24,600 -605 Descending Washington Center
Thu 07:56:38 PM 37.0383 -80.0700 77° East 471 542 23,800 -814 Descending Washington Center
Thu 07:57:38 PM 37.0000 -79.9194 108° East 446 513 23,000 -397 Descending Washington Center
Thu 07:58:39 PM 36.9472 -79.7658 113° Southeast 452 520 23,000  Level Washington Center
Thu 07:59:40 PM 36.8975 -79.6306 115° Southeast 464 534 23,000  Level Washington Center
Thu 08:00:38 PM 36.8439 -79.4850 115° Southeast 464 534 23,000 -814 Level Washington Center
Thu 08:01:38 PM 36.7581 -79.3614 131° Southeast 470 541 21,400 -2,450 Descending Washington Center
Thu 08:02:38 PM 36.6533 -79.2425 138° Southeast 465 535 18,100 -2,815 Descending Washington Center
Thu 08:03:48 PM 36.5586 -79.1294 136° Southeast 422 486 15,300 -2,376 Descending Washington Center
Thu 08:04:19 PM 36.5144 -79.0756 136° Southeast 406 467 14,100 -1,962 Descending Washington Center
Thu 08:04:40 PM 36.4922 -79.0489 136° Southeast 418 481 13,600 -2,000 Descending Washington Center
Thu 08:05:19 PM 36.4397 -78.9897 138° Southeast 359 413 12,100 -1,967 Descending Washington Center
Thu 08:05:41 PM 36.4175 -78.9631 136° Southeast 382 440 11,600 -1,519 Descending Washington Center
Thu 08:06:38 PM 36.3292 -78.9153 156° South 349 402 10,100 -914 Descending Washington Center
Thu 08:07:26 PM 36.2522 -78.8967 169° South 343 395 10,000 -100 Descending Washington Center
Thu 08:07:38 PM 36.2339 -78.8881 159° South 346 398 10,000  Level Washington Center
Thu 08:08:08 PM 36.1861 -78.8783 171° South 344 396 10,000 -290 Level Washington Center
Thu 08:08:40 PM 36.1447 -78.8639 164° South 346 398 9,700 -1,161 Descending Washington Center
Thu 08:09:10 PM 36.1011 -78.8542 170° South 311 358 8,800 -1,655 Descending Washington Center
Thu 08:09:38 PM 36.0619 -78.8422 166° South 322 371 8,100 -896 Descending Washington Center
Thu 08:10:17 PM 36.0117 -78.8428 181° South 261 300 7,800 -700 Descending Washington Center
Thu 08:10:38 PM 35.9908 -78.8419 178° South 290 334 7,400 -1,345 Descending Washington Center
Thu 08:11:15 PM 35.9506 -78.8661 206° Southwest 235 270 6,500 -1,258 Descending Washington Center
Thu 08:11:40 PM 35.9314 -78.8806 211° Southwest 247 284 6,100 -1,219 Descending Washington Center
Thu 08:12:19 PM 35.8950 -78.9150 217° Southwest 231 266 5,200 -1,345 Descending Washington Center
Thu 08:12:38 PM 35.8844 -78.9247 217° Southwest 236 272 4,800 -1,119 Descending Washington Center
Thu 08:13:18 PM 35.8442 -78.9436 201° Southwest 217 250 4,100 -1,180 Descending Washington Center
Thu 08:13:39 PM 35.8322 -78.9278 133° Southeast 229 264 3,600 -1,672 Descending Washington Center
Thu 08:14:19 PM 35.8208 -78.8811 107° East 203 234 2,400 -1,458 Descending Washington Center
Thu 08:15:26 PM 35.8514 -78.8286 54° Northeast 146 168 1,000 -1,254 Descending Washington Center
Thu 08:17:00 PM 35.8667 -78.7833 90° East  Level FlightAware Approximate
Thu 08:24:00 PM 35.8776 -78.7875 90° East  Level Estimated

Login

Don't have an account? Register now (free) for customized features, flight alerts, and more!